Time;durP1;ratioP1;P1;durP2;ratioP2;P2;SDS_P1;SDS_P2;PMS_P1;PMS_P2;Temp;Humidity;BMP_temperature;BMP_pressure;BME280_temperature;BME280_humidity;BME280_pressure;Samples;Min_cycle;Max_cycle;Signal;HPM_P1;HPM_P2
2021/06/09 00:00:24;;;;;;;2.10;2.00;;;21.20;60.00;;;;;;5053340;28;20547;-63
2021/06/09 00:02:51;;;;;;;2.20;1.70;;;21.20;59.90;;;;;;5053673;28;20477;-62
2021/06/09 00:05:17;;;;;;;1.77;1.60;;;21.20;59.90;;;;;;5053049;28;20466;-62
2021/06/09 00:07:44;;;;;;;2.37;2.17;;;21.20;59.80;;;;;;5053564;28;20485;-62
2021/06/09 00:10:11;;;;;;;2.00;1.90;;;21.10;59.80;;;;;;5053451;28;20504;-62
2021/06/09 00:12:37;;;;;;;1.87;1.60;;;21.10;59.80;;;;;;5053006;28;20533;-64
2021/06/09 00:15:05;;;;;;;1.80;1.70;;;21.10;59.90;;;;;;5053367;28;20466;-63
2021/06/09 00:17:32;;;;;;;2.23;2.13;;;21.00;59.90;;;;;;5052711;28;20478;-62
2021/06/09 00:19:59;;;;;;;3.77;1.83;;;21.00;59.80;;;;;;5053245;28;20477;-63
2021/06/09 00:22:27;;;;;;;1.97;1.87;;;21.00;59.70;;;;;;5052585;28;20471;-63
2021/06/09 00:24:53;;;;;;;2.43;2.27;;;21.00;59.60;;;;;;5051887;28;20459;-63
2021/06/09 00:27:20;;;;;;;1.70;1.60;;;20.90;59.70;;;;;;5052495;28;20528;-62
2021/06/09 00:29:46;;;;;;;2.53;1.90;;;20.90;59.80;;;;;;5052947;28;20468;-63
2021/06/09 00:32:12;;;;;;;1.80;1.70;;;20.80;59.90;;;;;;5052635;28;20530;-63
2021/06/09 00:34:39;;;;;;;2.27;2.17;;;20.80;59.90;;;;;;5052655;28;20927;-63
2021/06/09 00:37:06;;;;;;;2.00;1.80;;;20.80;60.00;;;;;;5053104;28;20474;-62
2021/06/09 00:39:33;;;;;;;1.97;1.67;;;20.80;59.80;;;;;;5052632;28;20474;-63
2021/06/09 00:41:59;;;;;;;1.43;1.33;;;20.70;59.90;;;;;;5052969;28;21001;-62
2021/06/09 00:44:25;;;;;;;1.73;1.63;;;20.70;59.90;;;;;;5052431;28;20481;-62
2021/06/09 00:46:52;;;;;;;2.20;2.10;;;20.70;60.00;;;;;;5052150;28;20472;-63
2021/06/09 00:49:18;;;;;;;1.77;1.67;;;20.70;60.10;;;;;;5056752;28;20476;-63
2021/06/09 00:51:45;;;;;;;2.23;2.03;;;20.70;60.10;;;;;;5058611;28;20536;-63
2021/06/09 00:54:12;;;;;;;4.00;1.97;;;20.70;60.10;;;;;;5045315;28;20481;-63
2021/06/09 00:56:39;;;;;;;2.17;1.97;;;20.70;60.10;;;;;;5052105;28;20532;-63
2021/06/09 00:59:07;;;;;;;2.13;1.73;;;20.70;60.20;;;;;;5052574;28;20481;-63
2021/06/09 01:01:34;;;;;;;1.67;1.57;;;20.60;60.30;;;;;;5052077;28;20474;-63
2021/06/09 01:04:00;;;;;;;2.60;2.40;;;20.60;60.30;;;;;;5052519;28;20466;-63
2021/06/09 01:06:27;;;;;;;3.23;2.03;;;20.60;60.20;;;;;;5052104;28;20966;-63
2021/06/09 01:08:53;;;;;;;2.50;2.30;;;20.60;60.00;;;;;;5051850;28;20550;-63
2021/06/09 01:11:26;;;;;;;1.80;1.70;;;20.60;60.20;;;;;;5052532;28;20962;-63
2021/06/09 01:13:53;;;;;;;1.77;1.67;;;20.60;60.30;;;;;;5052500;28;20492;-63
2021/06/09 01:16:23;;;;;;;1.70;1.60;;;20.50;60.30;;;;;;5052494;28;20466;-63
2021/06/09 01:18:50;;;;;;;2.00;1.90;;;20.50;60.50;;;;;;5052167;28;20471;-63
2021/06/09 01:21:24;;;;;;;2.60;2.27;;;20.50;60.70;;;;;;5052674;28;20553;-63
2021/06/09 01:23:50;;;;;;;3.00;2.20;;;20.50;60.80;;;;;;5051905;28;20961;-63
2021/06/09 01:26:18;;;;;;;3.40;2.83;;;20.50;61.00;;;;;;5051932;28;20474;-63
2021/06/09 01:28:46;;;;;;;2.00;1.90;;;20.40;61.10;;;;;;5051962;28;20833;-63
2021/06/09 01:31:14;;;;;;;1.50;1.40;;;20.40;61.30;;;;;;5058711;28;20482;-62
2021/06/09 01:33:40;;;;;;;2.53;2.33;;;20.40;61.50;;;;;;5052048;28;20469;-63
2021/06/09 01:36:07;;;;;;;2.07;1.97;;;20.40;61.60;;;;;;5052308;28;20477;-63
2021/06/09 01:38:35;;;;;;;2.50;2.30;;;20.30;61.60;;;;;;5051536;28;20464;-63
2021/06/09 01:41:01;;;;;;;2.00;1.90;;;20.30;61.80;;;;;;5052279;28;20475;-63
2021/06/09 01:43:28;;;;;;;2.73;2.30;;;20.30;61.90;;;;;;5051851;28;20484;-63
2021/06/09 01:45:56;;;;;;;3.10;2.73;;;20.30;61.90;;;;;;5051736;28;20848;-62
2021/06/09 01:48:23;;;;;;;3.13;2.20;;;20.30;62.20;;;;;;5051606;28;20488;-63
2021/06/09 01:50:49;;;;;;;1.80;1.60;;;20.30;62.50;;;;;;5040538;28;20467;-63
2021/06/09 01:53:16;;;;;;;2.00;1.90;;;20.20;62.70;;;;;;5052274;28;20470;-62
2021/06/09 01:55:44;;;;;;;1.90;1.80;;;20.20;62.70;;;;;;5051692;28;20466;-63
2021/06/09 01:58:12;;;;;;;2.07;1.90;;;20.20;62.80;;;;;;5053709;28;20537;-63
2021/06/09 02:00:43;;;;;;;2.40;2.23;;;20.20;63.00;;;;;;5055414;28;20501;-63
2021/06/09 02:03:11;;;;;;;3.37;3.07;;;20.20;63.20;;;;;;5056100;28;20465;-63
2021/06/09 02:05:38;;;;;;;3.17;2.47;;;20.20;63.40;;;;;;5055169;28;20478;-63
2021/06/09 02:08:07;;;;;;;2.43;2.23;;;20.20;63.70;;;;;;5048291;28;20520;-63
2021/06/09 02:10:35;;;;;;;3.63;2.50;;;20.10;64.10;;;;;;5044204;28;21027;-63
2021/06/09 02:13:05;;;;;;;2.03;1.83;;;20.00;64.30;;;;;;5053425;28;20526;-62
2021/06/09 02:15:32;;;;;;;2.53;2.33;;;20.00;64.30;;;;;;5053732;28;20477;-62
2021/06/09 02:18:09;;;;;;;2.80;2.60;;;20.00;64.60;;;;;;5054657;28;20515;-62
2021/06/09 02:20:38;;;;;;;3.30;3.00;;;19.90;65.00;;;;;;5054517;28;20482;-63
2021/06/09 02:23:07;;;;;;;5.37;3.70;;;19.90;65.10;;;;;;5054700;28;20471;-63
2021/06/09 02:25:34;;;;;;;2.60;2.40;;;19.90;65.30;;;;;;5054226;28;20491;-64
2021/06/09 02:28:02;;;;;;;4.80;3.60;;;19.90;65.40;;;;;;5055084;28;20465;-62
2021/06/09 02:30:29;;;;;;;4.17;3.70;;;19.90;65.60;;;;;;5054743;28;20652;-61
2021/06/09 02:32:55;;;;;;;4.40;4.10;;;19.80;65.70;;;;;;5055011;28;20463;-63
2021/06/09 02:35:22;;;;;;;3.40;3.10;;;19.80;65.80;;;;;;5055274;28;20501;-62
2021/06/09 02:37:51;;;;;;;2.97;2.67;;;19.80;66.00;;;;;;5054418;28;20471;-62
2021/06/09 02:40:18;;;;;;;3.20;2.97;;;19.80;66.30;;;;;;5055305;28;20468;-63
2021/06/09 02:42:45;;;;;;;3.27;2.93;;;19.80;66.40;;;;;;5054741;28;20469;-63
2021/06/09 02:45:16;;;;;;;3.20;2.40;;;19.70;66.60;;;;;;5055117;28;20881;-62
2021/06/09 02:47:47;;;;;;;2.80;2.60;;;19.70;66.60;;;;;;5054331;28;20548;-63
2021/06/09 02:50:16;;;;;;;3.30;3.03;;;19.70;66.70;;;;;;5055232;28;20464;-63
2021/06/09 02:52:50;;;;;;;3.53;3.10;;;19.70;66.70;;;;;;5041751;28;20473;-63
2021/06/09 02:55:27;;;;;;;3.20;2.90;;;19.70;66.90;;;;;;5054833;28;20837;-63
2021/06/09 02:58:02;;;;;;;2.73;2.53;;;19.70;66.70;;;;;;5054179;28;20473;-63
2021/06/09 03:00:36;;;;;;;2.60;2.40;;;19.60;66.50;;;;;;5055025;28;21124;-63
2021/06/09 03:03:09;;;;;;;3.10;2.63;;;19.60;66.40;;;;;;5054835;28;20469;-62
2021/06/09 03:05:41;;;;;;;3.77;2.90;;;19.60;66.40;;;;;;5045005;28;20820;-63
2021/06/09 03:08:16;;;;;;;3.37;3.07;;;19.60;66.60;;;;;;5046351;28;21280;-62
2021/06/09 03:10:50;;;;;;;2.87;2.60;;;19.60;66.60;;;;;;5053989;28;20474;-63
2021/06/09 03:13:27;;;;;;;3.87;3.50;;;19.60;66.60;;;;;;5054316;28;21235;-63
2021/06/09 03:16:01;;;;;;;2.90;2.70;;;19.60;66.60;;;;;;5054322;28;20556;-62
2021/06/09 03:18:34;;;;;;;4.03;3.63;;;19.70;66.90;;;;;;5054506;28;20480;-62
2021/06/09 03:21:03;;;;;;;3.33;3.03;;;19.70;67.00;;;;;;5054227;28;20478;-62
2021/06/09 03:23:41;;;;;;;4.17;3.77;;;19.70;66.90;;;;;;5041432;28;20459;-62
2021/06/09 03:26:11;;;;;;;3.47;3.20;;;19.60;66.90;;;;;;5053994;28;20536;-63
2021/06/09 03:28:48;;;;;;;3.30;2.97;;;19.60;67.30;;;;;;5054515;28;20807;-62
2021/06/09 03:31:21;;;;;;;3.17;2.87;;;19.60;67.20;;;;;;5053947;28;20550;-62
2021/06/09 03:33:51;;;;;;;3.50;3.20;;;19.60;67.30;;;;;;5054664;28;20771;-62
2021/06/09 03:36:21;;;;;;;3.67;3.37;;;19.60;67.40;;;;;;5054067;28;20451;-62
2021/06/09 03:38:52;;;;;;;3.93;3.63;;;19.60;67.40;;;;;;5054068;28;20465;-62
2021/06/09 03:41:21;;;;;;;3.80;3.50;;;19.60;67.60;;;;;;5040991;28;20453;-62
2021/06/09 03:43:52;;;;;;;4.30;3.90;;;19.60;67.80;;;;;;5054174;28;20472;-62
2021/06/09 03:46:23;;;;;;;3.87;3.57;;;19.60;68.00;;;;;;5044071;28;20484;-62
2021/06/09 03:48:50;;;;;;;3.90;3.60;;;19.60;68.10;;;;;;5053965;28;20798;-63
2021/06/09 03:51:18;;;;;;;4.60;4.10;;;19.60;68.10;;;;;;5051611;28;20548;-62
2021/06/09 03:53:46;;;;;;;3.70;3.40;;;19.60;68.20;;;;;;5049312;28;20809;-63
2021/06/09 03:56:13;;;;;;;7.00;4.20;;;19.70;68.20;;;;;;5053647;28;20471;-62
2021/06/09 03:58:41;;;;;;;3.87;3.57;;;19.70;68.20;;;;;;5053323;28;20464;-62
2021/06/09 04:01:08;;;;;;;4.03;3.60;;;19.70;68.20;;;;;;5053309;28;20471;-63
2021/06/09 04:03:40;;;;;;;4.10;3.67;;;19.70;68.30;;;;;;5053911;28;20459;-64
2021/06/09 04:06:08;;;;;;;3.00;2.80;;;19.70;69.10;;;;;;5043240;28;20473;-61
2021/06/09 04:08:36;;;;;;;2.90;2.57;;;19.70;68.20;;;;;;5045700;28;20962;-61
2021/06/09 04:11:04;;;;;;;3.47;3.17;;;19.80;68.20;;;;;;5053110;28;20478;-62
2021/06/09 04:13:31;;;;;;;4.50;2.67;;;19.80;68.00;;;;;;5053677;28;20487;-63
2021/06/09 04:16:00;;;;;;;4.07;3.20;;;19.80;67.90;;;;;;5053019;28;20974;-64
2021/06/09 04:18:29;;;;;;;3.43;3.13;;;19.90;68.00;;;;;;5053368;28;20832;-63
2021/06/09 04:20:59;;;;;;;3.30;3.00;;;20.00;68.10;;;;;;5053397;28;21028;-62
2021/06/09 04:23:26;;;;;;;3.30;2.90;;;20.00;68.10;;;;;;5052982;28;21308;-62
2021/06/09 04:25:52;;;;;;;3.60;3.30;;;20.00;68.10;;;;;;5053476;28;20494;-61
2021/06/09 04:28:20;;;;;;;3.50;3.20;;;20.00;68.10;;;;;;5052804;28;20475;-62
2021/06/09 04:30:47;;;;;;;4.90;2.60;;;20.00;67.80;;;;;;5053245;28;20465;-62
2021/06/09 04:33:14;;;;;;;3.00;2.80;;;20.00;67.80;;;;;;5052792;28;20472;-62
2021/06/09 04:35:43;;;;;;;3.23;2.90;;;20.10;67.80;;;;;;5053223;28;20529;-62
2021/06/09 04:38:14;;;;;;;2.80;2.60;;;20.10;67.80;;;;;;5052499;28;20464;-62
2021/06/09 04:40:41;;;;;;;3.60;2.60;;;20.20;67.60;;;;;;5053080;28;20469;-62
2021/06/09 04:43:07;;;;;;;2.80;2.60;;;20.20;67.40;;;;;;5052807;28;21021;-62
2021/06/09 04:45:34;;;;;;;2.40;2.20;;;20.20;67.30;;;;;;5052977;28;20469;-62
2021/06/09 04:48:00;;;;;;;4.30;3.50;;;20.30;67.30;;;;;;5052952;28;20469;-62
2021/06/09 04:50:28;;;;;;;4.33;3.80;;;20.30;67.00;;;;;;5052271;28;20999;-62
2021/06/09 04:53:10;;;;;;;3.50;3.30;;;20.30;66.80;;;;;;5053054;28;20959;-62
2021/06/09 04:55:39;;;;;;;3.37;3.07;;;20.40;66.80;;;;;;5052557;28;21296;-62
2021/06/09 04:58:05;;;;;;;3.33;3.13;;;20.40;66.50;;;;;;5052546;28;20523;-62
2021/06/09 05:00:32;;;;;;;3.37;3.07;;;20.50;66.20;;;;;;5052238;28;20470;-62
2021/06/09 05:02:58;;;;;;;4.33;3.17;;;20.50;66.20;;;;;;5052769;28;20468;-62
2021/06/09 05:05:24;;;;;;;2.80;2.60;;;20.50;66.00;;;;;;5052100;28;20484;-62
2021/06/09 05:07:51;;;;;;;2.83;2.63;;;20.60;65.80;;;;;;5049324;28;20485;-62
2021/06/09 05:10:17;;;;;;;2.87;2.67;;;20.60;65.20;;;;;;5048973;28;20474;-62
2021/06/09 05:12:51;;;;;;;2.70;2.50;;;20.70;64.70;;;;;;5052766;28;20470;-62
2021/06/09 05:15:18;;;;;;;2.63;2.43;;;20.70;64.80;;;;;;5052133;28;20778;-62
2021/06/09 05:17:46;;;;;;;2.97;2.67;;;20.70;65.00;;;;;;5052279;28;20466;-62
2021/06/09 05:20:21;;;;;;;2.63;2.43;;;20.70;65.30;;;;;;5052684;28;20468;-62
2021/06/09 05:22:53;;;;;;;2.40;2.17;;;20.80;65.10;;;;;;5052243;28;20468;-62
2021/06/09 05:25:21;;;;;;;2.73;2.53;;;20.80;65.00;;;;;;5052518;28;20809;-62
2021/06/09 05:27:49;;;;;;;2.13;2.00;;;20.80;65.00;;;;;;5052077;28;20840;-62
2021/06/09 05:30:18;;;;;;;3.20;2.90;;;20.90;65.30;;;;;;5052429;28;20539;-62
2021/06/09 05:32:45;;;;;;;4.80;3.57;;;20.90;65.90;;;;;;5053366;28;20484;-62
2021/06/09 05:35:16;;;;;;;3.70;3.30;;;21.00;66.30;;;;;;5056483;28;20488;-62
2021/06/09 05:37:45;;;;;;;2.93;2.47;;;21.00;66.30;;;;;;5056115;28;20477;-61
2021/06/09 05:40:16;;;;;;;2.57;2.37;;;21.10;65.90;;;;;;5056667;28;20466;-62
2021/06/09 05:42:43;;;;;;;2.43;2.23;;;21.10;65.20;;;;;;5042736;28;20517;-62
2021/06/09 05:45:12;;;;;;;2.70;2.43;;;21.20;64.60;;;;;;5056383;28;20541;-63
2021/06/09 05:47:42;;;;;;;3.03;2.70;;;21.20;64.30;;;;;;5042600;28;20489;-63
2021/06/09 05:50:15;;;;;;;2.83;2.63;;;21.30;64.50;;;;;;5066650;28;20454;-62
2021/06/09 05:52:42;;;;;;;4.03;3.13;;;21.40;64.60;;;;;;5055867;28;20463;-62
2021/06/09 05:55:15;;;;;;;2.37;2.17;;;21.40;64.70;;;;;;5056130;28;20822;-62
2021/06/09 05:57:42;;;;;;;3.30;2.60;;;21.60;65.20;;;;;;5055383;28;20790;-62
2021/06/09 06:00:11;;;;;;;3.23;2.80;;;21.60;64.20;;;;;;5056020;28;20980;-62
2021/06/09 06:02:38;;;;;;;2.60;2.30;;;21.70;63.10;;;;;;5055492;28;20485;-62
2021/06/09 06:05:06;;;;;;;3.07;2.80;;;21.80;62.70;;;;;;5045892;28;20474;-62
2021/06/09 06:07:34;;;;;;;3.60;3.00;;;21.90;62.80;;;;;;5041562;28;20481;-62
2021/06/09 06:10:00;;;;;;;3.07;2.70;;;22.10;62.60;;;;;;5049473;28;20953;-62
2021/06/09 06:12:28;;;;;;;4.60;2.90;;;22.30;61.60;;;;;;5055232;28;20474;-62
2021/06/09 06:14:55;;;;;;;4.63;2.50;;;22.40;60.90;;;;;;5055748;28;20467;-62
2021/06/09 06:17:22;;;;;;;6.83;2.83;;;22.60;60.80;;;;;;5055498;28;20736;-62
2021/06/09 06:19:50;;;;;;;5.23;2.23;;;22.70;60.40;;;;;;5054982;28;20478;-61
2021/06/09 06:22:17;;;;;;;1.80;1.70;;;22.90;59.80;;;;;;5055766;28;20833;-61
2021/06/09 06:24:46;;;;;;;3.20;2.90;;;23.00;59.80;;;;;;5055318;28;20481;-62
2021/06/09 06:27:14;;;;;;;3.57;2.60;;;23.20;59.80;;;;;;5055414;28;20479;-62
2021/06/09 06:29:41;;;;;;;3.80;2.47;;;23.30;59.70;;;;;;5055268;28;20808;-62
2021/06/09 06:32:09;;;;;;;3.63;2.40;;;23.40;59.80;;;;;;5055631;28;20814;-62
2021/06/09 06:34:42;;;;;;;1.90;1.80;;;23.40;59.80;;;;;;5041691;28;20543;-61
2021/06/09 06:37:09;;;;;;;2.43;2.23;;;23.50;59.30;;;;;;5055557;28;20467;-62
2021/06/09 06:39:36;;;;;;;2.07;1.73;;;23.60;59.20;;;;;;5055030;28;20991;-61
2021/06/09 06:42:03;;;;;;;2.20;2.00;;;23.60;59.00;;;;;;5055278;28;20463;-62
2021/06/09 06:44:30;;;;;;;3.07;2.00;;;23.80;59.10;;;;;;5053780;28;20855;-62
2021/06/09 06:46:57;;;;;;;2.97;2.67;;;23.90;59.00;;;;;;5050687;28;20542;-62
2021/06/09 06:49:25;;;;;;;2.40;2.20;;;23.90;58.60;;;;;;5055508;28;20476;-62
2021/06/09 06:51:52;;;;;;;3.37;2.17;;;24.10;58.50;;;;;;5054753;28;20945;-61
2021/06/09 06:54:20;;;;;;;3.37;2.83;;;24.30;58.00;;;;;;5055051;28;20543;-61
2021/06/09 06:56:48;;;;;;;3.70;2.83;;;24.50;57.90;;;;;;5054625;28;20475;-62
2021/06/09 06:59:15;;;;;;;2.70;2.50;;;24.70;57.90;;;;;;5056286;28;20808;-61
2021/06/09 07:01:42;;;;;;;2.60;2.40;;;24.90;57.30;;;;;;5054337;28;20467;-62
2021/06/09 07:04:09;;;;;;;1.90;1.80;;;25.10;56.90;;;;;;5052695;28;20467;-62
2021/06/09 07:06:36;;;;;;;3.47;2.60;;;25.20;56.20;;;;;;5048060;28;20467;-62
2021/06/09 07:09:05;;;;;;;2.27;2.13;;;25.40;56.30;;;;;;5052058;28;20542;-62
2021/06/09 07:11:32;;;;;;;2.03;1.83;;;25.40;55.90;;;;;;5054468;28;20497;-62
2021/06/09 07:13:59;;;;;;;3.10;2.07;;;25.50;55.50;;;;;;5054579;28;20459;-61
2021/06/09 07:16:30;;;;;;;5.90;5.30;;;25.60;55.70;;;;;;5054422;28;20489;-62
2021/06/09 07:18:57;;;;;;;3.80;3.37;;;25.80;55.40;;;;;;5054302;28;20451;-62
2021/06/09 07:21:24;;;;;;;2.80;2.60;;;25.90;54.90;;;;;;5054653;28;20501;-62
2021/06/09 07:23:51;;;;;;;2.30;2.10;;;26.00;54.80;;;;;;5054173;28;20554;-62
2021/06/09 07:26:19;;;;;;;5.37;2.77;;;26.10;54.60;;;;;;5054355;28;20468;-62
2021/06/09 07:28:48;;;;;;;3.50;2.83;;;26.20;54.20;;;;;;5054137;28;20468;-62
2021/06/09 07:31:16;;;;;;;1.73;1.63;;;26.40;53.80;;;;;;5054211;28;20471;-62
2021/06/09 07:33:45;;;;;;;2.60;2.40;;;26.50;53.00;;;;;;5054041;28;20485;-62
2021/06/09 07:36:13;;;;;;;2.27;2.03;;;26.60;52.90;;;;;;5054187;28;20498;-62
2021/06/09 07:38:44;;;;;;;1.60;1.50;;;26.70;53.00;;;;;;5053736;28;20554;-62
2021/06/09 07:41:12;;;;;;;2.63;1.70;;;26.80;52.80;;;;;;5054240;28;20831;-62
2021/06/09 07:43:42;;;;;;;3.13;2.27;;;26.90;52.50;;;;;;5053758;28;20869;-62
2021/06/09 07:46:13;;;;;;;3.83;1.80;;;27.00;52.20;;;;;;5053983;28;20468;-62
2021/06/09 07:48:40;;;;;;;3.60;1.90;;;27.10;52.20;;;;;;5053588;28;20468;-62
2021/06/09 07:51:10;;;;;;;1.97;1.87;;;27.30;51.60;;;;;;5040588;28;20542;-62
2021/06/09 07:53:38;;;;;;;5.40;2.00;;;27.30;51.50;;;;;;5053437;28;20467;-62
2021/06/09 07:56:06;;;;;;;2.50;2.00;;;27.30;50.80;;;;;;5053701;28;20475;-62
2021/06/09 07:58:33;;;;;;;2.70;2.10;;;27.40;50.70;;;;;;5056032;28;20463;-62
2021/06/09 08:01:02;;;;;;;3.00;1.80;;;27.40;50.70;;;;;;5053460;28;20586;-62
2021/06/09 08:03:31;;;;;;;3.10;2.53;;;27.40;50.90;;;;;;5053666;28;20478;-62
2021/06/09 08:06:02;;;;;;;1.80;1.70;;;27.50;50.90;;;;;;5053341;28;20459;-62
2021/06/09 08:08:31;;;;;;;2.10;1.87;;;27.50;51.00;;;;;;5050564;28;20471;-62
2021/06/09 08:10:58;;;;;;;1.83;1.73;;;27.50;51.00;;;;;;5052820;28;21104;-62
2021/06/09 08:13:25;;;;;;;3.23;2.80;;;27.60;50.90;;;;;;5053692;28;20556;-62
2021/06/09 08:15:53;;;;;;;4.60;4.30;;;27.70;50.80;;;;;;5053197;28;20485;-62
2021/06/09 08:18:21;;;;;;;4.10;2.50;;;27.80;50.80;;;;;;5053203;28;20486;-62
2021/06/09 08:21:03;;;;;;;6.60;3.63;;;27.90;50.30;;;;;;5052662;28;20483;-61
2021/06/09 08:23:30;;;;;;;3.00;2.80;;;28.10;49.60;;;;;;5053529;28;20523;-62
2021/06/09 08:25:56;;;;;;;3.83;2.97;;;28.10;49.10;;;;;;5053042;28;20474;-62
2021/06/09 08:28:23;;;;;;;2.40;2.07;;;28.10;49.50;;;;;;5053190;28;20513;-62
2021/06/09 08:30:49;;;;;;;3.10;2.90;;;28.10;49.00;;;;;;5052941;28;20481;-61
2021/06/09 08:33:16;;;;;;;3.60;3.30;;;28.10;49.00;;;;;;5053033;28;20467;-62
2021/06/09 08:35:43;;;;;;;4.37;3.97;;;28.20;49.20;;;;;;5052455;28;20532;-62
2021/06/09 08:38:10;;;;;;;3.00;2.80;;;28.20;48.50;;;;;;5053089;28;20477;-62
2021/06/09 08:40:37;;;;;;;1.87;1.67;;;28.30;48.40;;;;;;5053155;28;20483;-62
2021/06/09 08:43:03;;;;;;;2.47;2.10;;;28.20;47.50;;;;;;5052914;28;20485;-62
2021/06/09 08:45:30;;;;;;;1.63;1.53;;;28.20;47.90;;;;;;5052785;28;20479;-62
2021/06/09 08:47:57;;;;;;;3.90;1.90;;;28.20;48.10;;;;;;5051866;28;20495;-62
2021/06/09 08:50:26;;;;;;;3.27;3.00;;;28.10;47.90;;;;;;5066127;28;20637;-62
2021/06/09 08:52:57;;;;;;;4.23;3.10;;;28.10;48.30;;;;;;5052615;28;20460;-61
2021/06/09 08:55:23;;;;;;;2.60;1.73;;;28.10;48.30;;;;;;5052930;28;20463;-62
2021/06/09 08:57:50;;;;;;;1.70;1.60;;;28.00;48.00;;;;;;5052300;28;20794;-62
2021/06/09 09:00:18;;;;;;;2.27;1.90;;;27.90;48.50;;;;;;5052579;28;20476;-62
2021/06/09 09:02:46;;;;;;;3.67;1.90;;;27.90;48.30;;;;;;5052262;28;20538;-62
2021/06/09 09:05:13;;;;;;;3.70;2.40;;;27.80;48.10;;;;;;5047214;28;20543;-62
2021/06/09 09:07:39;;;;;;;3.57;1.57;;;27.80;48.40;;;;;;5052077;28;21037;-61
2021/06/09 09:10:09;;;;;;;2.37;2.13;;;27.70;48.40;;;;;;5039737;28;20455;-62
2021/06/09 09:12:36;;;;;;;2.00;1.90;;;27.60;48.70;;;;;;5052857;28;20469;-62
2021/06/09 09:15:05;;;;;;;2.40;1.80;;;27.70;49.10;;;;;;5039072;28;21044;-62
2021/06/09 09:17:31;;;;;;;3.20;1.80;;;27.60;49.10;;;;;;5052522;28;20471;-62
2021/06/09 09:20:07;;;;;;;1.50;1.40;;;27.50;48.50;;;;;;5052119;28;20481;-62
2021/06/09 09:22:36;;;;;;;2.80;2.07;;;27.50;48.60;;;;;;5052300;28;20473;-62
2021/06/09 09:25:13;;;;;;;3.00;1.77;;;27.50;48.70;;;;;;5051948;28;20467;-62
2021/06/09 09:27:39;;;;;;;2.00;1.70;;;27.40;48.90;;;;;;5052399;28;20467;-62
2021/06/09 09:30:08;;;;;;;2.30;1.80;;;27.40;48.70;;;;;;5052118;28;20469;-62
2021/06/09 09:32:35;;;;;;;2.47;2.27;;;27.30;48.90;;;;;;5052311;28;20481;-62
2021/06/09 09:35:06;;;;;;;5.83;2.47;;;27.30;48.90;;;;;;5052155;28;20475;-62
2021/06/09 09:37:34;;;;;;;3.70;1.60;;;27.30;48.70;;;;;;5052398;28;20471;-62
2021/06/09 09:40:13;;;;;;;2.23;2.00;;;27.30;48.70;;;;;;5051578;28;20468;-61
2021/06/09 09:42:42;;;;;;;4.80;2.10;;;27.20;48.90;;;;;;5052381;28;20949;-61
2021/06/09 09:45:17;;;;;;;2.60;1.70;;;27.20;49.00;;;;;;5052185;28;21233;-62
2021/06/09 09:47:43;;;;;;;3.00;1.97;;;27.10;49.00;;;;;;5039845;28;20471;-62
2021/06/09 09:50:30;;;;;;;2.17;1.70;;;27.10;48.70;;;;;;5051916;28;21064;-62
2021/06/09 09:52:56;;;;;;;2.30;1.90;;;27.00;48.90;;;;;;5051913;28;20559;-61
2021/06/09 09:55:23;;;;;;;3.67;1.77;;;27.00;49.20;;;;;;5052288;28;20490;-62
2021/06/09 09:57:50;;;;;;;1.73;1.63;;;27.00;49.20;;;;;;5051530;28;20600;-62
2021/06/09 10:00:32;;;;;;;2.60;1.87;;;27.00;48.80;;;;;;5051972;28;20467;-61
2021/06/09 10:03:15;;;;;;;3.20;2.10;;;27.00;48.70;;;;;;5051461;28;20467;-62
2021/06/09 10:05:41;;;;;;;2.10;1.67;;;26.90;48.50;;;;;;5047340;28;20478;-62
2021/06/09 10:08:09;;;;;;;5.27;2.07;;;27.00;49.10;;;;;;5051531;28;20477;-62
2021/06/09 10:10:36;;;;;;;2.87;1.97;;;27.00;48.70;;;;;;5052231;28;20503;-62
2021/06/09 10:13:08;;;;;;;2.43;2.20;;;27.00;48.40;;;;;;5051686;28;20475;-61
2021/06/09 10:15:36;;;;;;;3.13;1.80;;;27.00;48.30;;;;;;5052107;28;20478;-62
2021/06/09 10:18:16;;;;;;;1.77;1.67;;;27.00;48.50;;;;;;5051592;28;20475;-62
2021/06/09 10:20:47;;;;;;;2.23;1.80;;;27.00;48.40;;;;;;5055536;28;20473;-62
2021/06/09 10:23:37;;;;;;;2.53;1.83;;;27.00;48.20;;;;;;5055625;28;20545;-62
2021/06/09 10:26:08;;;;;;;1.73;1.60;;;27.00;48.30;;;;;;5055273;28;20487;-62
2021/06/09 10:28:57;;;;;;;1.90;1.80;;;27.00;48.40;;;;;;5055635;28;20471;-62
2021/06/09 10:31:25;;;;;;;2.27;1.90;;;27.00;48.30;;;;;;5043061;28;20574;-62
2021/06/09 10:33:51;;;;;;;2.40;2.30;;;27.00;48.30;;;;;;5055465;28;20481;-62
2021/06/09 10:36:18;;;;;;;2.07;1.43;;;27.10;47.90;;;;;;5055166;28;20467;-62
2021/06/09 10:38:46;;;;;;;1.70;1.60;;;27.10;47.90;;;;;;5055259;28;20485;-62
2021/06/09 10:41:13;;;;;;;3.43;1.77;;;27.10;47.90;;;;;;5054981;28;20891;-62
2021/06/09 10:43:42;;;;;;;1.90;1.37;;;27.10;48.00;;;;;;5055486;28;20460;-62
2021/06/09 10:46:11;;;;;;;1.93;1.77;;;27.10;48.00;;;;;;5054878;28;20471;-62
2021/06/09 10:48:40;;;;;;;2.23;2.03;;;27.10;47.70;;;;;;5055173;28;20547;-62
2021/06/09 10:51:09;;;;;;;2.00;1.70;;;27.10;48.10;;;;;;5063926;28;20466;-62
2021/06/09 10:53:38;;;;;;;4.47;2.30;;;27.20;48.10;;;;;;5055248;28;20459;-62
2021/06/09 10:56:05;;;;;;;2.20;1.53;;;27.10;48.00;;;;;;5054678;28;20475;-62
2021/06/09 10:58:32;;;;;;;1.97;1.83;;;27.10;47.20;;;;;;5054559;28;20540;-62
2021/06/09 11:01:00;;;;;;;2.33;1.67;;;27.10;47.70;;;;;;5055017;28;20471;-62
2021/06/09 11:03:28;;;;;;;1.90;1.80;;;27.20;47.90;;;;;;5054559;28;20516;-62
2021/06/09 11:06:01;;;;;;;3.40;1.70;;;27.20;47.90;;;;;;5054661;28;20529;-62
2021/06/09 11:08:28;;;;;;;2.80;1.90;;;27.30;47.90;;;;;;5054504;28;20463;-63
2021/06/09 11:10:55;;;;;;;2.07;1.87;;;27.30;48.20;;;;;;5054785;28;20467;-62
2021/06/09 11:13:30;;;;;;;3.97;1.80;;;27.30;48.40;;;;;;5054046;28;20475;-62
2021/06/09 11:16:08;;;;;;;1.77;1.67;;;27.40;48.10;;;;;;5054348;28;20867;-62
2021/06/09 11:18:38;;;;;;;3.37;1.70;;;27.30;47.90;;;;;;5053636;28;21242;-62
2021/06/09 11:21:05;;;;;;;2.70;1.93;;;27.30;47.40;;;;;;5054091;28;20467;-62
2021/06/09 11:23:33;;;;;;;3.00;1.67;;;27.30;47.60;;;;;;5053975;28;20947;-62
2021/06/09 11:26:00;;;;;;;1.83;1.73;;;27.40;47.40;;;;;;5051661;28;20467;-62
2021/06/09 11:28:40;;;;;;;2.27;1.63;;;27.30;47.50;;;;;;5053948;28;20987;-62
2021/06/09 11:31:09;;;;;;;1.93;1.63;;;27.30;47.80;;;;;;5053503;28;20471;-62
2021/06/09 11:33:43;;;;;;;4.63;1.53;;;27.30;47.90;;;;;;5053987;28;20551;-62
2021/06/09 11:36:29;;;;;;;1.97;1.87;;;27.30;48.20;;;;;;5054328;28;20778;-63
2021/06/09 11:38:57;;;;;;;1.93;1.83;;;27.30;48.30;;;;;;5054287;28;20471;-63
2021/06/09 11:41:26;;;;;;;2.37;2.10;;;27.20;48.60;;;;;;5054188;28;20465;-62
2021/06/09 11:43:55;;;;;;;3.57;2.10;;;27.30;49.00;;;;;;5053710;28;20542;-62
2021/06/09 11:46:24;;;;;;;2.17;1.97;;;27.30;48.80;;;;;;5054117;28;20498;-62
2021/06/09 11:48:57;;;;;;;2.33;2.00;;;27.30;48.80;;;;;;5053859;28;20969;-62
2021/06/09 11:51:31;;;;;;;2.20;2.00;;;27.40;48.60;;;;;;5063955;28;20559;-62
2021/06/09 11:53:59;;;;;;;2.00;1.90;;;27.40;48.50;;;;;;5053947;28;20472;-62
2021/06/09 11:56:31;;;;;;;1.83;1.57;;;27.50;48.20;;;;;;5059510;28;20459;-62
2021/06/09 11:59:00;;;;;;;1.80;1.70;;;27.50;47.80;;;;;;5053515;28;20475;-62
2021/06/09 12:01:35;;;;;;;2.00;1.67;;;27.50;47.80;;;;;;5053548;28;20455;-62
2021/06/09 12:04:21;;;;;;;1.83;1.60;;;27.50;46.70;;;;;;5041142;28;20475;-62
2021/06/09 12:06:51;;;;;;;2.30;1.37;;;27.60;47.10;;;;;;5053700;28;20459;-62
2021/06/09 12:09:19;;;;;;;1.90;1.80;;;27.50;47.00;;;;;;5053752;28;20481;-62
2021/06/09 12:11:48;;;;;;;1.83;1.60;;;27.60;47.30;;;;;;5053229;28;20467;-63
2021/06/09 12:14:27;;;;;;;2.03;1.90;;;27.60;47.30;;;;;;5053739;28;20467;-62
2021/06/09 12:16:56;;;;;;;2.07;1.87;;;27.60;47.20;;;;;;5052997;28;20477;-62
2021/06/09 12:19:28;;;;;;;3.60;1.83;;;27.50;47.10;;;;;;5053368;28;20477;-62
2021/06/09 12:21:56;;;;;;;1.80;1.67;;;27.60;47.10;;;;;;5040087;28;20562;-62
2021/06/09 12:24:23;;;;;;;3.20;2.40;;;27.60;46.90;;;;;;5053345;28;20467;-63
2021/06/09 12:26:52;;;;;;;1.83;1.73;;;27.60;47.00;;;;;;5052905;28;20546;-62
2021/06/09 12:29:24;;;;;;;3.13;2.03;;;27.70;47.00;;;;;;5053321;28;20515;-62
2021/06/09 12:31:50;;;;;;;1.87;1.77;;;27.70;47.20;;;;;;5052951;28;20455;-62
2021/06/09 12:34:30;;;;;;;1.73;1.63;;;27.70;47.40;;;;;;5053246;28;20471;-62
2021/06/09 12:37:02;;;;;;;4.73;2.00;;;27.70;47.60;;;;;;5052795;28;20524;-62
2021/06/09 12:39:29;;;;;;;3.17;2.00;;;27.80;47.80;;;;;;5053094;28;20471;-62
2021/06/09 12:41:55;;;;;;;2.10;1.90;;;27.70;47.30;;;;;;5053000;28;20805;-62
2021/06/09 12:44:23;;;;;;;2.73;2.17;;;27.70;47.30;;;;;;5053120;28;20571;-63
2021/06/09 12:46:52;;;;;;;2.40;2.17;;;27.70;47.30;;;;;;5052490;28;20478;-63
2021/06/09 12:49:26;;;;;;;2.80;2.60;;;27.70;47.50;;;;;;5052878;28;21006;-62
2021/06/09 12:52:18;;;;;;;3.97;2.30;;;27.70;47.60;;;;;;5052717;28;20463;-62
2021/06/09 12:54:55;;;;;;;1.93;1.83;;;27.60;47.50;;;;;;5042626;28;20473;-62
2021/06/09 12:57:32;;;;;;;2.50;2.00;;;27.50;47.50;;;;;;5052778;28;20480;-63